sensor_id;sensor_type;location;lat;lon;timestamp;temperature;humidity
15906;DHT22;8051;50.820;4.884;2023-12-14T00:00:32;8.30;99.90
15906;DHT22;8051;50.820;4.884;2023-12-14T00:03:00;8.30;99.90
15906;DHT22;8051;50.820;4.884;2023-12-14T00:05:27;8.30;99.90
15906;DHT22;8051;50.820;4.884;2023-12-14T00:07:54;8.30;99.90
15906;DHT22;8051;50.820;4.884;2023-12-14T00:10:22;8.30;99.90
15906;DHT22;8051;50.820;4.884;2023-12-14T00:12:50;8.30;99.90
15906;DHT22;8051;50.820;4.884;2023-12-14T00:15:19;8.30;99.90
15906;DHT22;8051;50.820;4.884;2023-12-14T00:17:46;8.30;99.90
15906;DHT22;8051;50.820;4.884;2023-12-14T00:20:14;8.30;99.90
15906;DHT22;8051;50.820;4.884;2023-12-14T00:22:42;8.30;99.90
15906;DHT22;8051;50.820;4.884;2023-12-14T00:25:09;8.30;99.90
15906;DHT22;8051;50.820;4.884;2023-12-14T00:27:38;8.30;99.90
15906;DHT22;8051;50.820;4.884;2023-12-14T00:30:07;8.30;99.90
15906;DHT22;8051;50.820;4.884;2023-12-14T00:32:34;8.30;99.90
15906;DHT22;8051;50.820;4.884;2023-12-14T00:35:02;8.30;99.90
15906;DHT22;8051;50.820;4.884;2023-12-14T00:37:29;8.40;99.90
15906;DHT22;8051;50.820;4.884;2023-12-14T00:39:57;8.40;99.90
15906;DHT22;8051;50.820;4.884;2023-12-14T00:42:24;8.40;99.90
15906;DHT22;8051;50.820;4.884;2023-12-14T00:44:53;8.40;99.90
15906;DHT22;8051;50.820;4.884;2023-12-14T00:47:20;8.40;99.90
15906;DHT22;8051;50.820;4.884;2023-12-14T00:49:48;8.40;99.90
15906;DHT22;8051;50.820;4.884;2023-12-14T00:52:15;8.40;99.90
15906;DHT22;8051;50.820;4.884;2023-12-14T00:54:43;8.40;99.90
15906;DHT22;8051;50.820;4.884;2023-12-14T00:57:10;8.40;99.90
15906;DHT22;8051;50.820;4.884;2023-12-14T00:59:37;8.40;99.90
15906;DHT22;8051;50.820;4.884;2023-12-14T01:02:07;8.40;99.90
15906;DHT22;8051;50.820;4.884;2023-12-14T01:04:35;8.40;99.90
15906;DHT22;8051;50.820;4.884;2023-12-14T01:07:02;8.40;99.90
15906;DHT22;8051;50.820;4.884;2023-12-14T01:09:30;8.40;99.90
15906;DHT22;8051;50.820;4.884;2023-12-14T01:11:57;8.40;99.90
15906;DHT22;8051;50.820;4.884;2023-12-14T01:14:25;8.40;99.90
15906;DHT22;8051;50.820;4.884;2023-12-14T01:16:52;8.40;99.90
15906;DHT22;8051;50.820;4.884;2023-12-14T01:19:21;8.40;99.90
15906;DHT22;8051;50.820;4.884;2023-12-14T01:21:49;8.40;99.90
15906;DHT22;8051;50.820;4.884;2023-12-14T01:24:16;8.40;99.90
15906;DHT22;8051;50.820;4.884;2023-12-14T01:26:43;8.40;99.90
15906;DHT22;8051;50.820;4.884;2023-12-14T01:29:11;8.40;99.90
15906;DHT22;8051;50.820;4.884;2023-12-14T01:31:38;8.40;99.90
15906;DHT22;8051;50.820;4.884;2023-12-14T01:34:06;8.40;99.90
15906;DHT22;8051;50.820;4.884;2023-12-14T01:36:35;8.40;99.90
15906;DHT22;8051;50.820;4.884;2023-12-14T01:39:03;8.40;99.90
15906;DHT22;8051;50.820;4.884;2023-12-14T01:41:31;8.50;99.90
15906;DHT22;8051;50.820;4.884;2023-12-14T01:43:58;8.50;99.90
15906;DHT22;8051;50.820;4.884;2023-12-14T01:46:26;8.50;99.90
15906;DHT22;8051;50.820;4.884;2023-12-14T01:48:53;8.40;99.90
15906;DHT22;8051;50.820;4.884;2023-12-14T01:51:21;8.40;99.90
15906;DHT22;8051;50.820;4.884;2023-12-14T01:53:50;8.40;99.90
15906;DHT22;8051;50.820;4.884;2023-12-14T01:56:17;8.40;99.90
15906;DHT22;8051;50.820;4.884;2023-12-14T01:58:45;8.30;99.90
15906;DHT22;8051;50.820;4.884;2023-12-14T02:01:18;8.30;99.90
15906;DHT22;8051;50.820;4.884;2023-12-14T02:03:49;8.30;99.90
15906;DHT22;8051;50.820;4.884;2023-12-14T02:06:17;8.30;99.90
15906;DHT22;8051;50.820;4.884;2023-12-14T02:08:44;8.20;99.90
15906;DHT22;8051;50.820;4.884;2023-12-14T02:11:13;8.10;99.90
15906;DHT22;8051;50.820;4.884;2023-12-14T02:13:41;8.00;99.90
15906;DHT22;8051;50.820;4.884;2023-12-14T02:16:09;7.90;99.90
15906;DHT22;8051;50.820;4.884;2023-12-14T02:18:36;7.90;99.90
15906;DHT22;8051;50.820;4.884;2023-12-14T02:21:04;7.90;99.90
15906;DHT22;8051;50.820;4.884;2023-12-14T02:23:33;7.80;99.90
15906;DHT22;8051;50.820;4.884;2023-12-14T02:26:01;7.70;99.90
15906;DHT22;8051;50.820;4.884;2023-12-14T02:28:28;7.60;99.90
15906;DHT22;8051;50.820;4.884;2023-12-14T02:30:56;7.60;99.90
15906;DHT22;8051;50.820;4.884;2023-12-14T02:33:23;7.60;99.90
15906;DHT22;8051;50.820;4.884;2023-12-14T02:35:51;7.60;99.90
15906;DHT22;8051;50.820;4.884;2023-12-14T02:38:18;7.60;99.90
15906;DHT22;8051;50.820;4.884;2023-12-14T02:40:47;7.60;99.90
15906;DHT22;8051;50.820;4.884;2023-12-14T02:43:16;7.60;99.90
15906;DHT22;8051;50.820;4.884;2023-12-14T02:45:43;7.60;99.90
15906;DHT22;8051;50.820;4.884;2023-12-14T02:48:11;7.50;99.90
15906;DHT22;8051;50.820;4.884;2023-12-14T02:50:38;7.50;99.90
15906;DHT22;8051;50.820;4.884;2023-12-14T02:53:06;7.40;99.90
15906;DHT22;8051;50.820;4.884;2023-12-14T02:55:33;7.40;99.90
15906;DHT22;8051;50.820;4.884;2023-12-14T02:58:02;7.40;99.90
15906;DHT22;8051;50.820;4.884;2023-12-14T03:00:30;7.40;99.90
15906;DHT22;8051;50.820;4.884;2023-12-14T03:02:57;7.30;99.90
15906;DHT22;8051;50.820;4.884;2023-12-14T03:05:25;7.20;99.90
15906;DHT22;8051;50.820;4.884;2023-12-14T03:07:52;7.20;99.90
15906;DHT22;8051;50.820;4.884;2023-12-14T03:10:20;7.20;99.90
15906;DHT22;8051;50.820;4.884;2023-12-14T03:12:47;7.20;99.90
15906;DHT22;8051;50.820;4.884;2023-12-14T03:15:18;7.20;99.90
15906;DHT22;8051;50.820;4.884;2023-12-14T03:17:45;7.20;99.90
15906;DHT22;8051;50.820;4.884;2023-12-14T03:20:13;7.20;99.90
15906;DHT22;8051;50.820;4.884;2023-12-14T03:22:40;7.20;99.90
15906;DHT22;8051;50.820;4.884;2023-12-14T03:25:09;7.30;99.90
15906;DHT22;8051;50.820;4.884;2023-12-14T03:27:37;7.20;99.90
15906;DHT22;8051;50.820;4.884;2023-12-14T03:30:05;7.20;99.90
15906;DHT22;8051;50.820;4.884;2023-12-14T03:32:37;7.10;99.90
15906;DHT22;8051;50.820;4.884;2023-12-14T03:35:05;7.00;99.90
15906;DHT22;8051;50.820;4.884;2023-12-14T03:37:34;7.00;99.90
15906;DHT22;8051;50.820;4.884;2023-12-14T03:40:02;6.90;99.90
15906;DHT22;8051;50.820;4.884;2023-12-14T03:42:29;6.90;99.90
15906;DHT22;8051;50.820;4.884;2023-12-14T03:44:57;6.90;99.90
15906;DHT22;8051;50.820;4.884;2023-12-14T03:47:24;6.90;99.90
15906;DHT22;8051;50.820;4.884;2023-12-14T03:49:53;6.90;99.90
15906;DHT22;8051;50.820;4.884;2023-12-14T03:52:20;6.90;99.90
15906;DHT22;8051;50.820;4.884;2023-12-14T03:54:48;6.90;99.90
15906;DHT22;8051;50.820;4.884;2023-12-14T03:57:15;6.80;99.90
15906;DHT22;8051;50.820;4.884;2023-12-14T03:59:43;6.80;99.90
15906;DHT22;8051;50.820;4.884;2023-12-14T04:02:10;6.80;99.90
15906;DHT22;8051;50.820;4.884;2023-12-14T04:04:38;6.80;99.90
15906;DHT22;8051;50.820;4.884;2023-12-14T04:07:07;6.80;99.90
15906;DHT22;8051;50.820;4.884;2023-12-14T04:09:35;6.80;99.90
15906;DHT22;8051;50.820;4.884;2023-12-14T04:12:03;6.80;99.90
15906;DHT22;8051;50.820;4.884;2023-12-14T04:14:30;6.80;99.90
15906;DHT22;8051;50.820;4.884;2023-12-14T04:16:58;6.80;99.90
15906;DHT22;8051;50.820;4.884;2023-12-14T04:19:25;6.80;99.90
15906;DHT22;8051;50.820;4.884;2023-12-14T04:21:52;6.70;99.90
15906;DHT22;8051;50.820;4.884;2023-12-14T04:24:21;6.60;99.90
15906;DHT22;8051;50.820;4.884;2023-12-14T04:26:49;6.50;99.90
15906;DHT22;8051;50.820;4.884;2023-12-14T04:29:16;6.50;99.90
15906;DHT22;8051;50.820;4.884;2023-12-14T04:31:44;6.50;99.90
15906;DHT22;8051;50.820;4.884;2023-12-14T04:34:11;6.40;99.90
15906;DHT22;8051;50.820;4.884;2023-12-14T04:36:41;6.40;99.90
15906;DHT22;8051;50.820;4.884;2023-12-14T04:39:09;6.40;99.90
15906;DHT22;8051;50.820;4.884;2023-12-14T04:41:38;6.30;99.90
15906;DHT22;8051;50.820;4.884;2023-12-14T04:44:05;6.30;99.90
15906;DHT22;8051;50.820;4.884;2023-12-14T04:46:32;6.20;99.90
15906;DHT22;8051;50.820;4.884;2023-12-14T04:49:00;6.20;99.90
15906;DHT22;8051;50.820;4.884;2023-12-14T04:51:27;6.20;99.90
15906;DHT22;8051;50.820;4.884;2023-12-14T04:53:54;6.20;99.90
15906;DHT22;8051;50.820;4.884;2023-12-14T04:56:22;6.20;99.90
15906;DHT22;8051;50.820;4.884;2023-12-14T04:58:51;6.10;99.90
15906;DHT22;8051;50.820;4.884;2023-12-14T05:01:18;6.10;99.90
15906;DHT22;8051;50.820;4.884;2023-12-14T05:03:45;6.10;99.90
15906;DHT22;8051;50.820;4.884;2023-12-14T05:06:13;6.10;99.90
15906;DHT22;8051;50.820;4.884;2023-12-14T05:08:41;6.10;99.90
15906;DHT22;8051;50.820;4.884;2023-12-14T05:11:09;6.10;99.90
15906;DHT22;8051;50.820;4.884;2023-12-14T05:13:36;6.00;99.90
15906;DHT22;8051;50.820;4.884;2023-12-14T05:16:06;6.00;99.90
15906;DHT22;8051;50.820;4.884;2023-12-14T05:18:34;6.00;99.90
15906;DHT22;8051;50.820;4.884;2023-12-14T05:21:01;6.00;99.90
15906;DHT22;8051;50.820;4.884;2023-12-14T05:23:29;6.00;99.90
15906;DHT22;8051;50.820;4.884;2023-12-14T05:25:56;6.00;99.90
15906;DHT22;8051;50.820;4.884;2023-12-14T05:28:23;6.00;99.90
15906;DHT22;8051;50.820;4.884;2023-12-14T05:30:51;6.00;99.90
15906;DHT22;8051;50.820;4.884;2023-12-14T05:33:20;5.90;99.90
15906;DHT22;8051;50.820;4.884;2023-12-14T05:35:47;6.00;99.90
15906;DHT22;8051;50.820;4.884;2023-12-14T05:38:15;6.00;99.90
15906;DHT22;8051;50.820;4.884;2023-12-14T05:40:42;6.00;99.90
15906;DHT22;8051;50.820;4.884;2023-12-14T05:43:10;5.90;99.90
15906;DHT22;8051;50.820;4.884;2023-12-14T05:45:38;6.00;99.90
15906;DHT22;8051;50.820;4.884;2023-12-14T05:48:05;6.00;99.90
15906;DHT22;8051;50.820;4.884;2023-12-14T05:50:34;5.90;99.90
15906;DHT22;8051;50.820;4.884;2023-12-14T05:53:02;6.00;99.90
15906;DHT22;8051;50.820;4.884;2023-12-14T05:55:29;5.90;99.90
15906;DHT22;8051;50.820;4.884;2023-12-14T05:57:57;5.90;99.90
15906;DHT22;8051;50.820;4.884;2023-12-14T06:00:24;5.90;99.90
15906;DHT22;8051;50.820;4.884;2023-12-14T06:02:52;5.90;99.90
15906;DHT22;8051;50.820;4.884;2023-12-14T06:05:19;5.90;99.90
15906;DHT22;8051;50.820;4.884;2023-12-14T06:07:51;5.90;99.90
15906;DHT22;8051;50.820;4.884;2023-12-14T06:10:19;5.80;99.90
15906;DHT22;8051;50.820;4.884;2023-12-14T06:12:47;5.90;99.90
15906;DHT22;8051;50.820;4.884;2023-12-14T06:15:14;5.80;99.90
15906;DHT22;8051;50.820;4.884;2023-12-14T06:17:42;5.80;99.90
15906;DHT22;8051;50.820;4.884;2023-12-14T06:20:10;5.80;99.90
15906;DHT22;8051;50.820;4.884;2023-12-14T06:22:38;5.80;99.90
15906;DHT22;8051;50.820;4.884;2023-12-14T06:25:07;5.80;99.90
15906;DHT22;8051;50.820;4.884;2023-12-14T06:27:35;5.80;99.90
15906;DHT22;8051;50.820;4.884;2023-12-14T06:30:03;5.80;99.90
15906;DHT22;8051;50.820;4.884;2023-12-14T06:32:31;5.80;99.90
15906;DHT22;8051;50.820;4.884;2023-12-14T06:34:58;5.80;99.90
15906;DHT22;8051;50.820;4.884;2023-12-14T06:37:25;5.80;99.90
15906;DHT22;8051;50.820;4.884;2023-12-14T06:39:53;5.80;99.90
15906;DHT22;8051;50.820;4.884;2023-12-14T06:42:22;5.80;99.90
15906;DHT22;8051;50.820;4.884;2023-12-14T06:44:49;5.80;99.90
15906;DHT22;8051;50.820;4.884;2023-12-14T06:47:17;5.80;99.90
15906;DHT22;8051;50.820;4.884;2023-12-14T06:49:44;5.90;99.90
15906;DHT22;8051;50.820;4.884;2023-12-14T06:52:11;5.80;99.90
15906;DHT22;8051;50.820;4.884;2023-12-14T06:54:38;5.80;99.90
15906;DHT22;8051;50.820;4.884;2023-12-14T06:57:06;5.90;99.90
15906;DHT22;8051;50.820;4.884;2023-12-14T06:59:35;5.80;99.90
15906;DHT22;8051;50.820;4.884;2023-12-14T07:02:03;5.80;99.90
15906;DHT22;8051;50.820;4.884;2023-12-14T07:04:30;5.80;99.90
15906;DHT22;8051;50.820;4.884;2023-12-14T07:06:58;5.80;99.90
15906;DHT22;8051;50.820;4.884;2023-12-14T07:09:25;5.80;99.90
15906;DHT22;8051;50.820;4.884;2023-12-14T07:11:53;5.80;99.90
15906;DHT22;8051;50.820;4.884;2023-12-14T07:14:21;5.80;99.90
15906;DHT22;8051;50.820;4.884;2023-12-14T07:16:50;5.70;99.90
15906;DHT22;8051;50.820;4.884;2023-12-14T07:19:18;5.70;99.90
15906;DHT22;8051;50.820;4.884;2023-12-14T07:21:45;5.70;99.90
15906;DHT22;8051;50.820;4.884;2023-12-14T07:24:13;5.70;99.90
15906;DHT22;8051;50.820;4.884;2023-12-14T07:26:40;5.70;99.90
15906;DHT22;8051;50.820;4.884;2023-12-14T07:29:08;5.70;99.90
15906;DHT22;8051;50.820;4.884;2023-12-14T07:31:35;5.60;99.90
15906;DHT22;8051;50.820;4.884;2023-12-14T07:34:04;5.70;99.90
15906;DHT22;8051;50.820;4.884;2023-12-14T07:36:31;5.70;99.90
15906;DHT22;8051;50.820;4.884;2023-12-14T07:38:59;5.70;99.90
15906;DHT22;8051;50.820;4.884;2023-12-14T07:41:27;5.70;99.90
15906;DHT22;8051;50.820;4.884;2023-12-14T07:43:55;5.70;99.90
15906;DHT22;8051;50.820;4.884;2023-12-14T07:46:24;5.60;99.90
15906;DHT22;8051;50.820;4.884;2023-12-14T07:48:51;5.60;99.90
15906;DHT22;8051;50.820;4.884;2023-12-14T07:51:20;5.60;99.90
15906;DHT22;8051;50.820;4.884;2023-12-14T07:53:47;5.60;99.90
15906;DHT22;8051;50.820;4.884;2023-12-14T07:56:15;5.60;99.90
15906;DHT22;8051;50.820;4.884;2023-12-14T07:58:43;5.60;99.90
15906;DHT22;8051;50.820;4.884;2023-12-14T08:01:10;5.60;99.90
15906;DHT22;8051;50.820;4.884;2023-12-14T08:03:38;5.60;99.90
15906;DHT22;8051;50.820;4.884;2023-12-14T08:06:06;5.70;99.90
15906;DHT22;8051;50.820;4.884;2023-12-14T08:08:35;5.70;99.90
15906;DHT22;8051;50.820;4.884;2023-12-14T08:11:03;5.80;99.90
15906;DHT22;8051;50.820;4.884;2023-12-14T08:13:31;5.80;99.90
15906;DHT22;8051;50.820;4.884;2023-12-14T08:15:58;5.70;99.90
15906;DHT22;8051;50.820;4.884;2023-12-14T08:18:26;5.70;99.90
15906;DHT22;8051;50.820;4.884;2023-12-14T08:20:53;5.60;99.90
15906;DHT22;8051;50.820;4.884;2023-12-14T08:23:21;5.60;99.90
15906;DHT22;8051;50.820;4.884;2023-12-14T08:25:50;5.70;99.90
15906;DHT22;8051;50.820;4.884;2023-12-14T08:28:18;5.80;99.90
15906;DHT22;8051;50.820;4.884;2023-12-14T08:30:45;5.80;99.90
15906;DHT22;8051;50.820;4.884;2023-12-14T08:33:13;5.80;99.90
15906;DHT22;8051;50.820;4.884;2023-12-14T08:35:41;5.90;99.90
15906;DHT22;8051;50.820;4.884;2023-12-14T08:38:09;5.90;99.90
15906;DHT22;8051;50.820;4.884;2023-12-14T08:40:36;5.90;99.90
15906;DHT22;8051;50.820;4.884;2023-12-14T08:43:05;6.00;99.90
15906;DHT22;8051;50.820;4.884;2023-12-14T08:45:33;6.00;99.90
15906;DHT22;8051;50.820;4.884;2023-12-14T08:48:00;6.00;99.90
15906;DHT22;8051;50.820;4.884;2023-12-14T08:50:28;5.90;99.90
15906;DHT22;8051;50.820;4.884;2023-12-14T08:52:55;5.80;99.90
15906;DHT22;8051;50.820;4.884;2023-12-14T08:55:24;5.70;99.90
15906;DHT22;8051;50.820;4.884;2023-12-14T08:57:52;5.60;99.90
15906;DHT22;8051;50.820;4.884;2023-12-14T09:00:21;5.60;99.90
15906;DHT22;8051;50.820;4.884;2023-12-14T09:02:49;5.60;99.90
15906;DHT22;8051;50.820;4.884;2023-12-14T09:05:16;5.60;99.90
15906;DHT22;8051;50.820;4.884;2023-12-14T09:07:45;5.60;99.90
15906;DHT22;8051;50.820;4.884;2023-12-14T09:10:13;5.70;99.90
15906;DHT22;8051;50.820;4.884;2023-12-14T09:12:40;5.70;99.90
15906;DHT22;8051;50.820;4.884;2023-12-14T09:15:08;5.70;99.90
15906;DHT22;8051;50.820;4.884;2023-12-14T09:17:37;5.70;99.90
15906;DHT22;8051;50.820;4.884;2023-12-14T09:20:06;5.70;99.90
15906;DHT22;8051;50.820;4.884;2023-12-14T09:22:33;5.70;99.90
15906;DHT22;8051;50.820;4.884;2023-12-14T09:25:01;5.80;99.90
15906;DHT22;8051;50.820;4.884;2023-12-14T09:27:29;5.80;99.90
15906;DHT22;8051;50.820;4.884;2023-12-14T09:29:56;5.80;99.90
15906;DHT22;8051;50.820;4.884;2023-12-14T09:32:24;5.90;99.90
15906;DHT22;8051;50.820;4.884;2023-12-14T09:34:53;5.90;99.90
15906;DHT22;8051;50.820;4.884;2023-12-14T09:37:22;6.00;99.90
15906;DHT22;8051;50.820;4.884;2023-12-14T09:39:49;6.10;99.90
15906;DHT22;8051;50.820;4.884;2023-12-14T09:42:21;6.20;99.90
15906;DHT22;8051;50.820;4.884;2023-12-14T09:44:49;6.20;99.90
15906;DHT22;8051;50.820;4.884;2023-12-14T09:47:17;6.20;99.90
15906;DHT22;8051;50.820;4.884;2023-12-14T09:49:45;6.30;99.90
15906;DHT22;8051;50.820;4.884;2023-12-14T09:52:14;6.20;99.90
15906;DHT22;8051;50.820;4.884;2023-12-14T09:54:41;6.20;99.90
15906;DHT22;8051;50.820;4.884;2023-12-14T09:57:09;6.20;99.90
15906;DHT22;8051;50.820;4.884;2023-12-14T09:59:38;6.20;99.90
15906;DHT22;8051;50.820;4.884;2023-12-14T10:02:12;6.20;99.90
15906;DHT22;8051;50.820;4.884;2023-12-14T10:04:42;6.40;99.90
15906;DHT22;8051;50.820;4.884;2023-12-14T10:07:10;6.40;99.90
15906;DHT22;8051;50.820;4.884;2023-12-14T10:09:38;6.40;99.90
15906;DHT22;8051;50.820;4.884;2023-12-14T10:12:08;6.50;99.90
15906;DHT22;8051;50.820;4.884;2023-12-14T10:14:36;6.60;99.90
15906;DHT22;8051;50.820;4.884;2023-12-14T10:17:22;6.70;99.90
15906;DHT22;8051;50.820;4.884;2023-12-14T10:19:57;6.80;99.90
15906;DHT22;8051;50.820;4.884;2023-12-14T10:22:26;6.80;99.90
15906;DHT22;8051;50.820;4.884;2023-12-14T10:24:59;6.90;99.90
15906;DHT22;8051;50.820;4.884;2023-12-14T10:27:27;6.90;99.90
15906;DHT22;8051;50.820;4.884;2023-12-14T10:29:55;6.90;99.90
15906;DHT22;8051;50.820;4.884;2023-12-14T10:32:23;7.00;99.90
15906;DHT22;8051;50.820;4.884;2023-12-14T10:34:50;7.00;99.90
15906;DHT22;8051;50.820;4.884;2023-12-14T10:37:19;7.10;99.90
15906;DHT22;8051;50.820;4.884;2023-12-14T10:39:49;7.00;99.90
15906;DHT22;8051;50.820;4.884;2023-12-14T10:42:21;7.00;99.90
15906;DHT22;8051;50.820;4.884;2023-12-14T10:44:52;7.00;99.90
15906;DHT22;8051;50.820;4.884;2023-12-14T10:47:19;7.00;99.90
15906;DHT22;8051;50.820;4.884;2023-12-14T10:49:49;7.00;99.90
15906;DHT22;8051;50.820;4.884;2023-12-14T10:52:17;6.90;99.90
15906;DHT22;8051;50.820;4.884;2023-12-14T10:54:44;6.90;99.90
15906;DHT22;8051;50.820;4.884;2023-12-14T10:57:12;7.00;99.90
15906;DHT22;8051;50.820;4.884;2023-12-14T10:59:42;7.00;99.90
15906;DHT22;8051;50.820;4.884;2023-12-14T11:02:09;7.10;99.90
15906;DHT22;8051;50.820;4.884;2023-12-14T11:04:53;7.10;99.90
15906;DHT22;8051;50.820;4.884;2023-12-14T11:07:43;7.20;99.90
15906;DHT22;8051;50.820;4.884;2023-12-14T11:10:10;7.10;99.90
15906;DHT22;8051;50.820;4.884;2023-12-14T11:12:37;7.10;99.90
15906;DHT22;8051;50.820;4.884;2023-12-14T11:15:08;7.10;99.90
15906;DHT22;8051;50.820;4.884;2023-12-14T11:17:36;7.10;99.90
15906;DHT22;8051;50.820;4.884;2023-12-14T11:20:24;7.00;99.90
15906;DHT22;8051;50.820;4.884;2023-12-14T11:22:51;7.00;99.90
15906;DHT22;8051;50.820;4.884;2023-12-14T11:25:23;6.90;99.90
15906;DHT22;8051;50.820;4.884;2023-12-14T11:27:51;6.90;99.90
15906;DHT22;8051;50.820;4.884;2023-12-14T11:30:20;6.90;99.90
15906;DHT22;8051;50.820;4.884;2023-12-14T11:32:49;6.80;99.90
15906;DHT22;8051;50.820;4.884;2023-12-14T11:35:16;6.90;99.90
15906;DHT22;8051;50.820;4.884;2023-12-14T11:37:43;7.00;99.90
15906;DHT22;8051;50.820;4.884;2023-12-14T11:40:11;7.00;99.90
15906;DHT22;8051;50.820;4.884;2023-12-14T11:42:42;7.10;99.90
15906;DHT22;8051;50.820;4.884;2023-12-14T11:45:12;7.30;99.90
15906;DHT22;8051;50.820;4.884;2023-12-14T11:47:41;7.30;99.90
15906;DHT22;8051;50.820;4.884;2023-12-14T11:50:09;7.30;99.90
15906;DHT22;8051;50.820;4.884;2023-12-14T11:52:37;7.30;99.90
15906;DHT22;8051;50.820;4.884;2023-12-14T11:55:05;7.30;99.90
15906;DHT22;8051;50.820;4.884;2023-12-14T11:57:33;7.30;99.90
15906;DHT22;8051;50.820;4.884;2023-12-14T12:00:00;7.30;99.90
15906;DHT22;8051;50.820;4.884;2023-12-14T12:02:29;7.30;99.90
15906;DHT22;8051;50.820;4.884;2023-12-14T12:04:58;7.40;99.90
15906;DHT22;8051;50.820;4.884;2023-12-14T12:07:25;7.40;99.90
15906;DHT22;8051;50.820;4.884;2023-12-14T12:09:52;7.40;99.90
15906;DHT22;8051;50.820;4.884;2023-12-14T12:12:21;7.50;99.90
15906;DHT22;8051;50.820;4.884;2023-12-14T12:14:48;7.50;99.90
15906;DHT22;8051;50.820;4.884;2023-12-14T12:17:18;7.50;99.90
15906;DHT22;8051;50.820;4.884;2023-12-14T12:19:46;7.40;99.90
15906;DHT22;8051;50.820;4.884;2023-12-14T12:22:15;7.50;99.90
15906;DHT22;8051;50.820;4.884;2023-12-14T12:24:42;7.60;99.90
15906;DHT22;8051;50.820;4.884;2023-12-14T12:27:10;7.60;99.90
15906;DHT22;8051;50.820;4.884;2023-12-14T12:29:37;7.60;99.90
15906;DHT22;8051;50.820;4.884;2023-12-14T12:32:05;7.60;99.90
15906;DHT22;8051;50.820;4.884;2023-12-14T12:34:32;7.50;99.90
15906;DHT22;8051;50.820;4.884;2023-12-14T12:37:00;7.40;99.90
15906;DHT22;8051;50.820;4.884;2023-12-14T12:39:29;7.30;99.90
15906;DHT22;8051;50.820;4.884;2023-12-14T12:41:56;7.40;99.90
15906;DHT22;8051;50.820;4.884;2023-12-14T12:44:23;7.40;99.90
15906;DHT22;8051;50.820;4.884;2023-12-14T12:46:51;7.50;99.90
15906;DHT22;8051;50.820;4.884;2023-12-14T12:49:23;7.40;99.90
15906;DHT22;8051;50.820;4.884;2023-12-14T12:51:49;7.40;99.90
15906;DHT22;8051;50.820;4.884;2023-12-14T12:54:16;7.30;99.90
15906;DHT22;8051;50.820;4.884;2023-12-14T12:56:45;7.30;99.90
15906;DHT22;8051;50.820;4.884;2023-12-14T12:59:12;7.30;99.90
15906;DHT22;8051;50.820;4.884;2023-12-14T13:01:40;7.30;99.90
15906;DHT22;8051;50.820;4.884;2023-12-14T13:04:18;7.30;99.90
15906;DHT22;8051;50.820;4.884;2023-12-14T13:06:46;7.30;99.90
15906;DHT22;8051;50.820;4.884;2023-12-14T13:09:14;7.30;99.90
15906;DHT22;8051;50.820;4.884;2023-12-14T13:11:42;7.30;99.90
15906;DHT22;8051;50.820;4.884;2023-12-14T13:14:10;7.20;99.90
15906;DHT22;8051;50.820;4.884;2023-12-14T13:16:38;7.10;99.90
15906;DHT22;8051;50.820;4.884;2023-12-14T13:19:06;7.00;99.90
15906;DHT22;8051;50.820;4.884;2023-12-14T13:21:33;7.00;99.90
15906;DHT22;8051;50.820;4.884;2023-12-14T13:24:00;7.00;99.90
15906;DHT22;8051;50.820;4.884;2023-12-14T13:26:28;7.10;99.90
15906;DHT22;8051;50.820;4.884;2023-12-14T13:28:55;7.00;99.90
15906;DHT22;8051;50.820;4.884;2023-12-14T13:31:24;7.00;99.90
15906;DHT22;8051;50.820;4.884;2023-12-14T13:33:51;7.00;99.90
15906;DHT22;8051;50.820;4.884;2023-12-14T13:36:19;6.90;99.90
15906;DHT22;8051;50.820;4.884;2023-12-14T13:38:46;6.90;99.90
15906;DHT22;8051;50.820;4.884;2023-12-14T13:41:14;6.90;99.90
15906;DHT22;8051;50.820;4.884;2023-12-14T13:43:41;6.90;99.90
15906;DHT22;8051;50.820;4.884;2023-12-14T13:46:09;6.70;99.90
15906;DHT22;8051;50.820;4.884;2023-12-14T13:48:38;6.70;99.90
15906;DHT22;8051;50.820;4.884;2023-12-14T13:51:06;6.80;99.90
15906;DHT22;8051;50.820;4.884;2023-12-14T13:53:33;6.80;99.90
15906;DHT22;8051;50.820;4.884;2023-12-14T13:56:00;6.70;99.90
15906;DHT22;8051;50.820;4.884;2023-12-14T13:58:28;6.80;99.90
15906;DHT22;8051;50.820;4.884;2023-12-14T14:00:55;6.80;99.90
15906;DHT22;8051;50.820;4.884;2023-12-14T14:03:22;6.80;99.90
15906;DHT22;8051;50.820;4.884;2023-12-14T14:05:53;6.70;99.90
15906;DHT22;8051;50.820;4.884;2023-12-14T14:08:20;6.70;99.90
15906;DHT22;8051;50.820;4.884;2023-12-14T14:10:47;6.70;99.90
15906;DHT22;8051;50.820;4.884;2023-12-14T14:13:15;6.70;99.90
15906;DHT22;8051;50.820;4.884;2023-12-14T14:15:41;6.80;99.90
15906;DHT22;8051;50.820;4.884;2023-12-14T14:18:09;6.80;99.90
15906;DHT22;8051;50.820;4.884;2023-12-14T14:20:36;6.90;99.90
15906;DHT22;8051;50.820;4.884;2023-12-14T14:23:05;7.00;99.90
15906;DHT22;8051;50.820;4.884;2023-12-14T14:25:33;7.10;99.90
15906;DHT22;8051;50.820;4.884;2023-12-14T14:28:01;7.10;99.90
15906;DHT22;8051;50.820;4.884;2023-12-14T14:30:28;7.10;99.90
15906;DHT22;8051;50.820;4.884;2023-12-14T14:32:56;7.20;99.90
15906;DHT22;8051;50.820;4.884;2023-12-14T14:35:23;7.20;99.90
15906;DHT22;8051;50.820;4.884;2023-12-14T14:37:51;7.20;99.90
15906;DHT22;8051;50.820;4.884;2023-12-14T14:40:48;7.20;99.90
15906;DHT22;8051;50.820;4.884;2023-12-14T14:43:54;7.20;99.90
15906;DHT22;8051;50.820;4.884;2023-12-14T14:46:46;7.30;99.90
15906;DHT22;8051;50.820;4.884;2023-12-14T14:49:32;7.30;99.90
15906;DHT22;8051;50.820;4.884;2023-12-14T14:52:54;7.30;99.90
15906;DHT22;8051;50.820;4.884;2023-12-14T14:58:43;7.20;99.90
15906;DHT22;8051;50.820;4.884;2023-12-14T15:01:13;7.20;99.90
15906;DHT22;8051;50.820;4.884;2023-12-14T15:03:41;7.10;99.90
15906;DHT22;8051;50.820;4.884;2023-12-14T15:06:09;7.10;99.90
15906;DHT22;8051;50.820;4.884;2023-12-14T15:08:36;7.20;99.90
15906;DHT22;8051;50.820;4.884;2023-12-14T15:11:03;7.20;99.90
15906;DHT22;8051;50.820;4.884;2023-12-14T15:13:33;7.20;99.90
15906;DHT22;8051;50.820;4.884;2023-12-14T15:16:02;7.20;99.90
15906;DHT22;8051;50.820;4.884;2023-12-14T15:18:29;7.10;99.90
15906;DHT22;8051;50.820;4.884;2023-12-14T15:20:56;7.10;99.90
15906;DHT22;8051;50.820;4.884;2023-12-14T15:23:23;7.10;99.90
15906;DHT22;8051;50.820;4.884;2023-12-14T15:25:51;7.10;99.90
15906;DHT22;8051;50.820;4.884;2023-12-14T15:28:18;7.10;99.90
15906;DHT22;8051;50.820;4.884;2023-12-14T15:30:45;7.10;99.90
15906;DHT22;8051;50.820;4.884;2023-12-14T15:33:13;7.10;99.90
15906;DHT22;8051;50.820;4.884;2023-12-14T15:36:04;7.10;99.90
15906;DHT22;8051;50.820;4.884;2023-12-14T15:39:05;7.10;99.90
15906;DHT22;8051;50.820;4.884;2023-12-14T15:42:19;7.00;99.90
15906;DHT22;8051;50.820;4.884;2023-12-14T15:45:08;7.00;99.90
15906;DHT22;8051;50.820;4.884;2023-12-14T15:47:46;7.00;99.90
15906;DHT22;8051;50.820;4.884;2023-12-14T15:50:24;7.00;99.90
15906;DHT22;8051;50.820;4.884;2023-12-14T15:52:53;7.00;99.90
15906;DHT22;8051;50.820;4.884;2023-12-14T15:55:21;7.00;99.90
15906;DHT22;8051;50.820;4.884;2023-12-14T15:57:50;7.00;99.90
15906;DHT22;8051;50.820;4.884;2023-12-14T16:00:18;7.00;99.90
15906;DHT22;8051;50.820;4.884;2023-12-14T16:02:46;7.00;99.90
15906;DHT22;8051;50.820;4.884;2023-12-14T16:05:14;7.00;99.90
15906;DHT22;8051;50.820;4.884;2023-12-14T16:07:43;7.00;99.90
15906;DHT22;8051;50.820;4.884;2023-12-14T16:10:11;7.00;99.90
15906;DHT22;8051;50.820;4.884;2023-12-14T16:12:38;7.00;99.90
15906;DHT22;8051;50.820;4.884;2023-12-14T16:15:07;7.00;99.90